createdAt,value
2018-03-15T00:01:58.519Z,19.55
2018-03-15T00:04:33.380Z,17.58
2018-03-15T00:07:01.804Z,20.02
2018-03-15T00:09:30.243Z,18.40
2018-03-15T00:11:58.645Z,19.30
2018-03-15T00:14:27.053Z,21.00
2018-03-15T00:16:55.546Z,20.10
2018-03-15T00:19:23.913Z,18.50
2018-03-15T00:21:52.390Z,18.58
2018-03-15T00:24:20.771Z,18.50
2018-03-15T00:26:49.184Z,18.87
2018-03-15T00:29:17.569Z,18.08
2018-03-15T00:31:45.923Z,18.17
2018-03-15T00:34:14.309Z,18.10
2018-03-15T00:36:42.692Z,16.87
2018-03-15T00:39:11.156Z,20.12
2018-03-15T00:41:39.583Z,19.45
2018-03-15T00:44:07.944Z,18.30
2018-03-15T00:46:36.425Z,16.77
2018-03-15T00:49:04.804Z,18.75
2018-03-15T00:51:33.604Z,16.67
2018-03-15T00:54:02.439Z,18.85
2018-03-15T00:56:30.944Z,16.62
2018-03-15T00:58:59.324Z,17.20
2018-03-15T01:01:27.691Z,16.20
2018-03-15T01:03:56.059Z,18.25
2018-03-15T01:06:24.444Z,16.83
2018-03-15T01:08:52.885Z,16.02
2018-03-15T01:11:21.260Z,15.35
2018-03-15T01:13:49.663Z,16.50
2018-03-15T01:16:18.131Z,14.27
2018-03-15T01:18:46.516Z,17.08
2018-03-15T01:21:14.919Z,15.82
2018-03-15T01:23:43.296Z,15.63
2018-03-15T01:26:11.920Z,15.48
2018-03-15T01:28:40.307Z,16.05
2018-03-15T01:31:08.699Z,15.15
2018-03-15T01:33:37.074Z,15.75
2018-03-15T01:36:05.456Z,15.07
2018-03-15T01:38:33.877Z,14.02
2018-03-15T01:41:02.244Z,17.20
2018-03-15T01:43:30.649Z,13.93
2018-03-15T01:45:59.035Z,15.65
2018-03-15T01:48:27.382Z,17.00
2018-03-15T01:50:55.813Z,17.45
2018-03-15T01:53:24.187Z,16.70
2018-03-15T01:55:52.660Z,16.87
2018-03-15T01:58:21.019Z,16.37
2018-03-15T02:00:49.395Z,16.95
2018-03-15T02:03:17.865Z,17.17
2018-03-15T02:05:46.240Z,15.52
2018-03-15T02:08:14.620Z,17.15
2018-03-15T02:10:42.990Z,18.92
2018-03-15T02:13:11.492Z,16.95
2018-03-15T02:15:39.886Z,18.27
2018-03-15T02:18:08.276Z,19.40
2018-03-15T02:20:36.697Z,17.98
2018-03-15T02:23:05.097Z,17.20
2018-03-15T02:25:33.479Z,16.90
2018-03-15T02:28:01.826Z,17.42
2018-03-15T02:30:30.227Z,17.45
2018-03-15T02:32:58.653Z,18.00
2018-03-15T02:35:27.065Z,17.87
2018-03-15T02:37:55.434Z,18.33
2018-03-15T02:40:23.792Z,17.35
2018-03-15T02:42:52.157Z,18.75
2018-03-15T02:45:20.680Z,17.40
2018-03-15T02:47:49.069Z,18.98
2018-03-15T02:50:17.442Z,19.15
2018-03-15T02:52:45.888Z,18.65
2018-03-15T02:55:14.236Z,19.05
2018-03-15T02:57:42.659Z,19.67
2018-03-15T03:00:11.032Z,18.25
2018-03-15T03:02:39.398Z,19.12
2018-03-15T03:05:07.759Z,19.33
2018-03-15T03:07:36.126Z,19.60
2018-03-15T03:10:04.592Z,17.55
2018-03-15T03:12:32.956Z,19.20
2018-03-15T03:15:01.371Z,19.65
2018-03-15T03:17:30.338Z,19.35
2018-03-15T03:19:58.703Z,19.20
2018-03-15T03:22:27.121Z,19.48
2018-03-15T03:24:55.485Z,18.15
2018-03-15T03:27:23.861Z,17.90
2018-03-15T03:29:52.211Z,16.27
2018-03-15T03:32:20.576Z,18.30
2018-03-15T03:34:49.023Z,17.33
2018-03-15T03:37:17.511Z,18.25
2018-03-15T03:39:45.874Z,16.52
2018-03-15T03:42:14.238Z,16.58
2018-03-15T03:44:42.603Z,16.55
2018-03-15T03:47:11.048Z,18.33
2018-03-15T03:49:39.403Z,16.33
2018-03-15T03:52:07.775Z,16.25
2018-03-15T03:54:36.166Z,16.23
2018-03-15T03:57:04.528Z,17.35
2018-03-15T03:59:32.936Z,19.60
2018-03-15T04:02:01.300Z,16.00
2018-03-15T04:04:29.676Z,15.82
2018-03-15T04:06:57.395Z,17.98
2018-03-15T04:09:25.522Z,18.45
2018-03-15T04:11:53.883Z,19.58
2018-03-15T04:14:22.274Z,18.40
2018-03-15T04:16:50.647Z,16.65
2018-03-15T04:19:19.004Z,18.37
2018-03-15T04:21:47.375Z,17.62
2018-03-15T04:24:15.876Z,14.80
2018-03-15T04:26:44.232Z,16.25
2018-03-15T04:29:12.601Z,18.08
2018-03-15T04:31:40.960Z,14.95
2018-03-15T04:34:09.332Z,16.50
2018-03-15T04:36:37.772Z,17.85
2018-03-15T04:39:06.156Z,15.32
2018-03-15T04:41:34.633Z,17.87
2018-03-15T04:44:03.024Z,17.98
2018-03-15T04:46:31.383Z,17.35
2018-03-15T04:48:59.894Z,16.92
2018-03-15T04:51:28.267Z,17.50
2018-03-15T04:53:56.848Z,17.80
2018-03-15T04:56:25.220Z,16.52
2018-03-15T04:58:53.581Z,17.42
2018-03-15T05:01:21.942Z,15.05
2018-03-15T05:03:50.313Z,17.70
2018-03-15T05:06:18.741Z,17.42
2018-03-15T05:08:47.201Z,17.25
2018-03-15T05:11:15.575Z,17.25
2018-03-15T05:13:43.941Z,17.23
2018-03-15T05:16:12.344Z,17.12
2018-03-15T05:18:40.783Z,17.50
2018-03-15T05:21:09.154Z,16.75
2018-03-15T05:23:37.520Z,17.37
2018-03-15T05:26:06.019Z,17.60
2018-03-15T05:28:34.389Z,18.40
2018-03-15T05:31:02.836Z,18.42
2018-03-15T05:33:31.200Z,17.48
2018-03-15T05:35:59.555Z,18.35
2018-03-15T05:38:27.949Z,16.00
2018-03-15T05:40:56.429Z,16.42
2018-03-15T05:43:24.825Z,18.58
2018-03-15T05:45:53.188Z,18.40
2018-03-15T05:48:21.639Z,16.42
2018-03-15T05:50:50.055Z,17.83
2018-03-15T05:53:18.480Z,18.08
2018-03-15T05:55:46.842Z,16.75
2018-03-15T05:58:15.216Z,17.58
2018-03-15T06:00:43.623Z,17.67
2018-03-15T06:03:12.010Z,16.80
2018-03-15T06:05:40.556Z,15.80
2018-03-15T06:08:08.923Z,16.60
2018-03-15T06:10:37.277Z,15.50
2018-03-15T06:13:05.639Z,15.55
2018-03-15T06:15:34.119Z,14.80
2018-03-15T06:18:02.628Z,16.80
2018-03-15T06:20:31.108Z,16.62
2018-03-15T06:22:59.640Z,16.45
2018-03-15T06:25:28.091Z,16.58
2018-03-15T06:27:56.459Z,15.73
2018-03-15T06:30:24.941Z,14.80
2018-03-15T06:32:53.375Z,16.02
2018-03-15T06:35:21.735Z,16.27
2018-03-15T06:37:50.108Z,15.07
2018-03-15T06:40:18.497Z,14.10
2018-03-15T06:42:47.220Z,16.12
2018-03-15T06:45:15.700Z,14.40
2018-03-15T06:47:44.122Z,13.00
2018-03-15T06:50:12.520Z,12.88
2018-03-15T06:52:40.918Z,11.80
2018-03-15T06:55:09.378Z,11.03
2018-03-15T06:57:37.726Z,11.20
2018-03-15T07:00:06.124Z,10.27
2018-03-15T07:02:34.578Z,11.10
2018-03-15T07:05:03.255Z,9.50
2018-03-15T07:07:31.737Z,9.67
2018-03-15T07:10:00.264Z,10.70
2018-03-15T07:12:28.760Z,10.90
2018-03-15T07:14:57.150Z,10.77
2018-03-15T07:17:25.628Z,10.50
2018-03-15T07:19:54.046Z,9.27
2018-03-15T07:22:22.475Z,10.80
2018-03-15T07:24:50.854Z,10.60
2018-03-15T07:27:19.262Z,10.40
2018-03-15T07:29:47.751Z,10.97
2018-03-15T07:32:16.333Z,9.77
2018-03-15T07:34:44.706Z,10.60
2018-03-15T07:37:13.309Z,11.73
2018-03-15T07:39:41.715Z,11.93
2018-03-15T07:42:10.089Z,11.90
2018-03-15T07:44:38.697Z,12.20
2018-03-15T07:47:07.091Z,11.63
2018-03-15T07:49:35.531Z,11.00
2018-03-15T07:52:03.875Z,10.93
2018-03-15T07:54:32.245Z,10.73
2018-03-15T07:57:00.676Z,10.97
2018-03-15T07:59:29.038Z,12.30
2018-03-15T08:01:57.449Z,10.67
2018-03-15T08:04:25.841Z,10.27
2018-03-15T08:06:54.214Z,10.77
2018-03-15T08:09:22.588Z,11.53
2018-03-15T08:11:50.953Z,12.70
2018-03-15T08:14:19.385Z,11.77
2018-03-15T08:16:47.738Z,13.20
2018-03-15T08:19:16.115Z,12.07
2018-03-15T08:21:44.493Z,13.70
2018-03-15T08:24:12.975Z,13.67
2018-03-15T08:26:42.259Z,11.50
2018-03-15T08:29:10.665Z,12.53
2018-03-15T08:31:39.052Z,12.63
2018-03-15T08:34:07.431Z,11.30
2018-03-15T08:36:35.803Z,11.87
2018-03-15T08:39:04.350Z,13.70
2018-03-15T08:41:32.734Z,12.50
2018-03-15T08:44:01.122Z,13.47
2018-03-15T08:46:29.515Z,12.60
2018-03-15T08:48:57.996Z,13.20
2018-03-15T08:51:26.430Z,13.37
2018-03-15T08:53:54.865Z,13.00
2018-03-15T08:56:23.265Z,11.60
2018-03-15T08:58:51.636Z,12.43
2018-03-15T09:01:20.019Z,12.67
2018-03-15T09:03:48.463Z,11.93
2018-03-15T09:06:16.849Z,13.57
2018-03-15T09:08:45.353Z,12.47
2018-03-15T09:11:13.688Z,11.70
2018-03-15T09:13:42.080Z,12.33
2018-03-15T09:16:10.520Z,13.10
2018-03-15T09:18:38.919Z,14.10
2018-03-15T09:21:07.314Z,11.87
2018-03-15T09:23:35.726Z,14.07
2018-03-15T09:26:04.093Z,13.40
2018-03-15T09:28:32.512Z,12.27
2018-03-15T09:31:00.915Z,12.50
2018-03-15T09:33:29.305Z,12.87
2018-03-15T09:35:57.697Z,11.80
2018-03-15T09:38:26.089Z,12.37
2018-03-15T09:40:54.563Z,12.90
2018-03-15T09:43:22.967Z,12.50
2018-03-15T09:45:51.375Z,13.80
2018-03-15T09:48:19.768Z,12.97
2018-03-15T09:50:48.153Z,13.60
2018-03-15T09:53:16.612Z,12.63
2018-03-15T09:55:45.023Z,13.03
2018-03-15T09:58:13.414Z,14.00
2018-03-15T10:00:41.799Z,12.03
2018-03-15T10:03:10.178Z,13.27
2018-03-15T10:05:38.728Z,13.20
2018-03-15T10:08:07.122Z,12.40
2018-03-15T10:10:35.524Z,13.20
2018-03-15T10:13:03.919Z,12.97
2018-03-15T10:15:32.340Z,11.70
2018-03-15T10:18:00.784Z,12.50
2018-03-15T10:20:29.185Z,11.10
2018-03-15T10:22:57.568Z,11.70
2018-03-15T10:25:26.392Z,11.70
2018-03-15T10:27:54.352Z,13.03
2018-03-15T10:30:22.768Z,12.10
2018-03-15T10:32:56.828Z,12.97
2018-03-15T10:35:28.413Z,12.23
2018-03-15T10:37:56.798Z,12.10
2018-03-15T10:40:25.180Z,12.57
2018-03-15T10:42:53.559Z,11.37
2018-03-15T10:45:22.043Z,10.83
2018-03-15T10:47:50.515Z,10.73
2018-03-15T10:50:18.935Z,12.20
2018-03-15T10:52:47.337Z,12.57
2018-03-15T10:55:15.723Z,12.30
2018-03-15T10:57:44.202Z,11.87
2018-03-15T11:00:12.646Z,11.20
2018-03-15T11:02:46.576Z,13.03
2018-03-15T11:05:20.932Z,12.77
2018-03-15T11:07:54.914Z,12.30
2018-03-15T11:10:23.366Z,13.00
2018-03-15T11:12:52.777Z,12.60
2018-03-15T11:15:21.132Z,12.90
2018-03-15T11:17:49.519Z,11.87
2018-03-15T11:20:17.948Z,11.83
2018-03-15T11:22:46.394Z,11.30
2018-03-15T11:25:14.799Z,12.87
2018-03-15T11:27:43.299Z,11.37
2018-03-15T11:30:11.687Z,11.23
2018-03-15T11:32:40.080Z,10.77
2018-03-15T11:35:08.545Z,11.43
2018-03-15T11:37:36.938Z,11.13
2018-03-15T11:40:05.343Z,10.97
2018-03-15T11:42:33.731Z,10.53
2018-03-15T11:45:02.120Z,11.27
2018-03-15T11:47:31.288Z,11.60
2018-03-15T11:49:59.684Z,11.40
2018-03-15T11:52:28.121Z,10.77
2018-03-15T11:54:56.504Z,11.17
2018-03-15T11:57:24.883Z,11.40
2018-03-15T11:59:53.340Z,11.10
2018-03-15T12:02:21.736Z,11.37
2018-03-15T12:04:50.143Z,11.37
2018-03-15T12:07:18.826Z,11.90
2018-03-15T12:09:47.291Z,11.20
2018-03-15T12:12:15.748Z,10.40
2018-03-15T12:14:44.124Z,10.70
2018-03-15T12:17:12.621Z,10.40
2018-03-15T12:19:40.987Z,11.30
2018-03-15T12:22:09.371Z,11.60
2018-03-15T12:24:37.814Z,11.80
2018-03-15T12:27:06.184Z,11.23
2018-03-15T12:29:34.557Z,10.40
2018-03-15T12:32:02.924Z,11.00
2018-03-15T12:34:31.302Z,11.83
2018-03-15T12:36:59.745Z,12.20
2018-03-15T12:39:28.098Z,11.57
2018-03-15T12:41:56.475Z,12.37
2018-03-15T12:44:24.957Z,12.47
2018-03-15T12:46:53.330Z,11.80
2018-03-15T12:49:21.843Z,12.07
2018-03-15T12:51:50.226Z,13.07
2018-03-15T12:54:18.618Z,12.40
2018-03-15T12:56:47.000Z,12.17
2018-03-15T12:59:15.363Z,11.00
2018-03-15T13:01:43.828Z,11.80
2018-03-15T13:04:12.192Z,12.63
2018-03-15T13:06:40.564Z,12.80
2018-03-15T13:09:08.978Z,13.17
2018-03-15T13:11:37.364Z,11.77
2018-03-15T13:14:05.747Z,11.83
2018-03-15T13:16:34.126Z,11.87
2018-03-15T13:19:02.496Z,11.90
2018-03-15T13:21:30.888Z,13.20
2018-03-15T13:23:59.272Z,12.93
2018-03-15T13:26:27.635Z,12.80
2018-03-15T13:28:56.037Z,12.97
2018-03-15T13:31:24.550Z,12.37
2018-03-15T13:33:52.953Z,13.20
2018-03-15T13:36:21.362Z,13.17
2018-03-15T13:38:49.946Z,13.40
2018-03-15T13:41:18.358Z,13.43
2018-03-15T13:43:46.768Z,13.83
2018-03-15T13:46:15.262Z,14.10
2018-03-15T13:48:43.681Z,12.93
2018-03-15T13:51:12.091Z,13.10
2018-03-15T13:53:40.630Z,13.13
2018-03-15T13:56:09.040Z,13.97
2018-03-15T13:58:37.479Z,15.30
2018-03-15T14:01:06.036Z,14.57
2018-03-15T14:03:34.433Z,13.63
2018-03-15T14:06:02.847Z,15.60
2018-03-15T14:08:31.408Z,14.50
2018-03-15T14:10:59.821Z,14.30
2018-03-15T14:13:28.237Z,13.50
2018-03-15T14:15:56.693Z,13.77
2018-03-15T14:18:25.106Z,13.87
2018-03-15T14:20:53.533Z,14.20
2018-03-15T14:23:22.029Z,13.83
2018-03-15T14:25:50.455Z,14.00
2018-03-15T14:28:19.013Z,11.57
2018-03-15T14:30:47.474Z,12.57
2018-03-15T14:33:15.872Z,13.40
2018-03-15T14:35:44.339Z,13.70
2018-03-15T14:38:12.740Z,14.13
2018-03-15T14:40:41.202Z,14.97
2018-03-15T14:43:09.604Z,12.10
2018-03-15T14:45:38.025Z,14.77
2018-03-15T14:48:06.448Z,14.07
2018-03-15T14:50:34.886Z,13.83
2018-03-15T14:53:03.392Z,15.27
2018-03-15T14:55:31.808Z,12.90
2018-03-15T14:58:00.272Z,13.63
2018-03-15T15:00:28.630Z,12.00
2018-03-15T15:02:57.043Z,14.00
2018-03-15T15:05:25.523Z,13.50
2018-03-15T15:07:53.955Z,14.83
2018-03-15T15:10:22.357Z,13.00
2018-03-15T15:12:50.794Z,13.63
2018-03-15T15:15:19.180Z,12.47
2018-03-15T15:17:47.790Z,14.43
2018-03-15T15:20:16.199Z,13.53
2018-03-15T15:22:44.596Z,14.30
2018-03-15T15:25:13.014Z,15.23
2018-03-15T15:27:41.403Z,14.40
2018-03-15T15:30:10.244Z,15.63
2018-03-15T15:32:38.652Z,15.70
2018-03-15T15:35:07.101Z,16.57
2018-03-15T15:37:35.479Z,17.23
2018-03-15T15:40:03.880Z,18.30
2018-03-15T15:42:32.506Z,17.80
2018-03-15T15:45:01.043Z,18.97
2018-03-15T15:47:29.455Z,18.80
2018-03-15T15:49:58.519Z,18.60
2018-03-15T15:52:26.940Z,17.90
2018-03-15T15:54:55.411Z,19.57
2018-03-15T15:57:23.821Z,16.73
2018-03-15T15:59:52.206Z,17.67
2018-03-15T16:02:20.636Z,18.33
2018-03-15T16:04:49.107Z,19.60
2018-03-15T16:07:17.581Z,18.23
2018-03-15T16:09:45.993Z,18.30
2018-03-15T16:12:14.414Z,20.70
2018-03-15T16:14:42.888Z,18.50
2018-03-15T16:17:11.289Z,18.57
2018-03-15T16:19:39.827Z,18.57
2018-03-15T16:22:08.268Z,19.13
2018-03-15T16:24:36.733Z,21.07
2018-03-15T16:27:05.153Z,17.87
2018-03-15T16:29:33.571Z,19.77
2018-03-15T16:32:02.066Z,20.20
2018-03-15T16:34:30.467Z,19.33
2018-03-15T16:36:58.885Z,21.67
2018-03-15T16:39:27.292Z,19.50
2018-03-15T16:41:55.798Z,20.60
2018-03-15T16:44:24.257Z,19.07
2018-03-15T16:46:52.738Z,19.47
2018-03-15T16:49:21.197Z,17.77
2018-03-15T16:51:49.618Z,18.67
2018-03-15T16:54:18.007Z,19.30
2018-03-15T16:56:46.522Z,18.30
2018-03-15T16:59:14.914Z,19.70
2018-03-15T17:01:43.351Z,19.50
2018-03-15T17:04:11.762Z,19.87
2018-03-15T17:06:40.161Z,19.73
2018-03-15T17:09:08.632Z,19.43
2018-03-15T17:11:37.033Z,20.17
2018-03-15T17:14:05.464Z,21.40
2018-03-15T17:16:33.864Z,19.03
2018-03-15T17:19:02.254Z,20.47
2018-03-15T17:21:30.775Z,18.70
2018-03-15T17:23:59.165Z,19.60
2018-03-15T17:26:27.556Z,19.60
2018-03-15T17:28:55.954Z,19.97
2018-03-15T17:31:24.362Z,19.80
2018-03-15T17:33:52.864Z,19.83
2018-03-15T17:36:21.348Z,20.90
2018-03-15T17:38:49.740Z,19.63
2018-03-15T17:41:18.140Z,20.30
2018-03-15T17:43:46.524Z,18.40
2018-03-15T17:46:14.985Z,19.47
2018-03-15T17:48:43.389Z,20.37
2018-03-15T17:51:11.899Z,19.80
2018-03-15T17:53:40.288Z,17.97
2018-03-15T17:56:10.047Z,20.43
2018-03-15T17:58:38.593Z,20.03
2018-03-15T18:01:07.003Z,18.60
2018-03-15T18:03:35.462Z,19.17
2018-03-15T18:06:03.928Z,20.50
2018-03-15T18:08:32.315Z,20.17
2018-03-15T18:11:00.775Z,19.30
2018-03-15T18:13:29.176Z,20.03
2018-03-15T18:15:57.606Z,19.97
2018-03-15T18:18:26.077Z,19.77
2018-03-15T18:20:54.592Z,20.73
2018-03-15T18:23:23.384Z,20.60
2018-03-15T18:25:51.836Z,21.53
2018-03-15T18:28:20.241Z,20.37
2018-03-15T18:30:48.652Z,21.97
2018-03-15T18:33:17.038Z,20.80
2018-03-15T18:35:45.623Z,20.73
2018-03-15T18:38:14.029Z,20.50
2018-03-15T18:40:42.430Z,18.67
2018-03-15T18:43:10.808Z,18.20
2018-03-15T18:45:39.212Z,20.43
2018-03-15T18:48:07.648Z,20.67
2018-03-15T18:50:36.103Z,18.87
2018-03-15T18:53:04.973Z,20.47
2018-03-15T18:55:33.359Z,18.93
2018-03-15T18:58:01.800Z,20.40
2018-03-15T19:00:30.347Z,20.20
2018-03-15T19:02:58.736Z,19.93
2018-03-15T19:05:27.311Z,21.67
2018-03-15T19:07:55.795Z,21.57
2018-03-15T19:10:24.209Z,19.73
2018-03-15T19:12:52.656Z,20.70
2018-03-15T19:15:21.115Z,21.40
2018-03-15T19:17:49.571Z,20.20
2018-03-15T19:20:18.043Z,20.60
2018-03-15T19:22:46.456Z,21.57
2018-03-15T19:25:14.987Z,19.90
2018-03-15T19:27:43.392Z,22.10
2018-03-15T19:30:11.867Z,20.67
2018-03-15T19:32:40.301Z,22.37
2018-03-15T19:35:08.715Z,20.20
2018-03-15T19:37:37.156Z,20.80
2018-03-15T19:40:05.598Z,21.80
2018-03-15T19:42:34.138Z,21.63
2018-03-15T19:45:02.609Z,23.63
2018-03-15T19:47:30.997Z,21.47
2018-03-15T19:49:59.429Z,19.67
2018-03-15T19:52:27.815Z,22.57
2018-03-15T19:54:56.262Z,20.77
2018-03-15T19:57:24.673Z,21.30
2018-03-15T19:59:53.072Z,18.37
2018-03-15T20:02:21.474Z,22.37
2018-03-15T20:05:08.353Z,22.20
2018-03-15T20:07:36.757Z,22.90
2018-03-15T20:10:05.310Z,24.60
2018-03-15T20:12:33.727Z,22.67
2018-03-15T20:15:02.473Z,23.33
2018-03-15T20:17:31.136Z,21.23
2018-03-15T20:19:59.538Z,22.10
2018-03-15T20:22:34.339Z,23.07
2018-03-15T20:25:02.735Z,22.63
2018-03-15T20:27:36.896Z,19.70
2018-03-15T20:30:05.285Z,22.73
2018-03-15T20:32:39.348Z,23.10
2018-03-15T20:35:07.885Z,21.37
2018-03-15T20:37:36.257Z,23.27
2018-03-15T20:40:10.792Z,22.23
2018-03-15T20:42:39.171Z,22.50
2018-03-15T20:45:07.632Z,22.80
2018-03-15T20:47:42.553Z,24.83
2018-03-15T20:50:10.952Z,23.30
2018-03-15T20:52:39.306Z,24.20
2018-03-15T20:55:07.683Z,24.23
2018-03-15T20:57:36.046Z,24.00
2018-03-15T21:00:04.517Z,23.03
2018-03-15T21:02:32.945Z,22.00
2018-03-15T21:05:01.323Z,21.50
2018-03-15T21:07:29.721Z,24.37
2018-03-15T21:09:58.204Z,24.30
2018-03-15T21:12:26.669Z,24.00
2018-03-15T21:14:55.065Z,23.40
2018-03-15T21:17:23.536Z,24.10
2018-03-15T21:19:51.945Z,25.07
2018-03-15T21:22:20.338Z,25.20
2018-03-15T21:24:48.818Z,25.23
2018-03-15T21:27:17.261Z,25.20
2018-03-15T21:29:45.727Z,24.00
2018-03-15T21:32:14.222Z,23.90
2018-03-15T21:34:42.629Z,24.33
2018-03-15T21:37:11.033Z,25.57
2018-03-15T21:39:39.471Z,22.70
2018-03-15T21:42:07.872Z,23.80
2018-03-15T21:44:36.306Z,25.43
2018-03-15T21:47:04.742Z,23.70
2018-03-15T21:49:33.201Z,25.03
2018-03-15T21:52:01.625Z,23.87
2018-03-15T21:54:30.094Z,24.30
2018-03-15T21:56:58.516Z,24.13
2018-03-15T21:59:26.885Z,26.70
2018-03-15T22:01:55.360Z,25.23
2018-03-15T22:04:23.763Z,25.60
2018-03-15T22:06:52.170Z,25.77
2018-03-15T22:09:20.616Z,25.10
2018-03-15T22:11:49.080Z,25.13
2018-03-15T22:14:17.601Z,25.23
2018-03-15T22:16:46.246Z,26.17
2018-03-15T22:19:14.728Z,26.27
2018-03-15T22:21:43.140Z,26.07
2018-03-15T22:24:12.454Z,26.27
2018-03-15T22:26:40.880Z,25.80
2018-03-15T22:29:09.300Z,27.03
2018-03-15T22:31:37.880Z,23.90
2018-03-15T22:34:06.283Z,26.70
2018-03-15T22:36:34.732Z,28.70
2018-03-15T22:39:03.292Z,24.30
2018-03-15T22:41:31.679Z,27.03
2018-03-15T22:44:00.157Z,28.63
2018-03-15T22:46:28.629Z,27.97
2018-03-15T22:48:57.069Z,26.70
2018-03-15T22:51:25.460Z,27.10
2018-03-15T22:53:54.311Z,28.47
2018-03-15T22:56:22.700Z,29.70
2018-03-15T22:58:51.101Z,28.50
2018-03-15T23:01:19.624Z,30.90
2018-03-15T23:03:48.037Z,28.07
2018-03-15T23:06:16.431Z,28.77
2018-03-15T23:08:44.880Z,29.33
2018-03-15T23:11:13.277Z,31.37
2018-03-15T23:13:41.707Z,30.07
2018-03-15T23:16:10.115Z,30.07
2018-03-15T23:18:38.540Z,32.17
2018-03-15T23:21:07.008Z,30.80
2018-03-15T23:23:35.432Z,30.80
2018-03-15T23:26:03.840Z,30.47
2018-03-15T23:28:32.247Z,31.20
2018-03-15T23:31:00.652Z,30.93
2018-03-15T23:33:29.185Z,30.10
2018-03-15T23:35:57.643Z,30.70
2018-03-15T23:38:26.050Z,31.47
2018-03-15T23:40:54.529Z,30.70
2018-03-15T23:43:22.936Z,30.50
2018-03-15T23:45:51.487Z,30.87
2018-03-15T23:48:19.891Z,32.00
2018-03-15T23:50:48.292Z,29.40
2018-03-15T23:53:16.680Z,32.27
2018-03-15T23:55:45.055Z,32.10
2018-03-15T23:58:13.547Z,31.30
